createdAt,value
2023-05-13T00:00:26.363Z,100.00
2023-05-13T00:02:52.828Z,100.00
2023-05-13T00:05:19.388Z,100.00
2023-05-13T00:07:45.876Z,100.00
2023-05-13T00:10:12.346Z,100.00
2023-05-13T00:12:38.687Z,100.00
2023-05-13T00:15:05.597Z,100.00
2023-05-13T00:17:31.997Z,100.00
2023-05-13T00:19:58.440Z,100.00
2023-05-13T00:22:24.997Z,100.00
2023-05-13T00:24:51.336Z,100.00
2023-05-13T00:27:17.694Z,100.00
2023-05-13T00:29:44.236Z,100.00
2023-05-13T00:32:10.615Z,100.00
2023-05-13T00:34:37.170Z,100.00
2023-05-13T00:37:03.915Z,100.00
2023-05-13T00:39:30.307Z,100.00
2023-05-13T00:41:56.873Z,100.00
2023-05-13T00:44:23.282Z,100.00
2023-05-13T00:46:49.874Z,100.00
2023-05-13T00:49:16.250Z,100.00
2023-05-13T00:51:43.030Z,100.00
2023-05-13T00:54:09.386Z,100.00
2023-05-13T00:56:38.081Z,100.00
2023-05-13T00:59:04.704Z,100.00
2023-05-13T01:02:24.379Z,100.00
2023-05-13T01:05:02.502Z,100.00
2023-05-13T01:07:48.439Z,100.00
2023-05-13T01:10:17.454Z,100.00
2023-05-13T01:12:46.366Z,100.00
2023-05-13T01:15:17.358Z,100.00
2023-05-13T01:17:53.557Z,100.00
2023-05-13T01:20:24.647Z,100.00
2023-05-13T01:22:51.371Z,100.00
2023-05-13T01:25:17.707Z,100.00
2023-05-13T01:27:44.503Z,100.00
2023-05-13T01:30:11.613Z,100.00
2023-05-13T01:32:38.545Z,100.00
2023-05-13T01:35:07.717Z,100.00
2023-05-13T01:37:35.150Z,100.00
2023-05-13T01:40:02.494Z,100.00
2023-05-13T01:42:30.185Z,100.00
2023-05-13T01:44:57.640Z,100.00
2023-05-13T01:47:23.997Z,100.00
2023-05-13T01:49:50.522Z,100.00
2023-05-13T01:52:16.899Z,100.00
2023-05-13T01:54:43.299Z,100.00
2023-05-13T01:57:09.760Z,100.00
2023-05-13T01:59:36.086Z,100.00
2023-05-13T02:02:02.565Z,100.00
2023-05-13T02:04:29.722Z,100.00
2023-05-13T02:06:56.044Z,100.00
2023-05-13T02:09:22.500Z,100.00
2023-05-13T02:11:48.852Z,100.00
2023-05-13T02:14:15.595Z,100.00
2023-05-13T02:16:42.127Z,100.00
2023-05-13T02:19:08.758Z,100.00
2023-05-13T02:21:35.313Z,100.00
2023-05-13T02:24:01.778Z,100.00
2023-05-13T02:26:28.320Z,100.00
2023-05-13T02:28:55.505Z,100.00
2023-05-13T02:31:21.916Z,100.00
2023-05-13T02:33:48.369Z,100.00
2023-05-13T02:36:14.677Z,100.00
2023-05-13T02:38:41.370Z,100.00
2023-05-13T02:41:08.766Z,100.00
2023-05-13T02:43:35.416Z,100.00
2023-05-13T02:46:02.634Z,100.00
2023-05-13T02:48:29.130Z,100.00
2023-05-13T02:50:55.566Z,100.00
2023-05-13T02:53:21.971Z,100.00
2023-05-13T02:55:48.593Z,100.00
2023-05-13T02:58:15.090Z,100.00
2023-05-13T03:00:42.756Z,100.00
2023-05-13T03:03:09.249Z,100.00
2023-05-13T03:05:35.732Z,100.00
2023-05-13T03:08:02.125Z,100.00
2023-05-13T03:10:28.629Z,100.00
2023-05-13T03:12:54.934Z,100.00
2023-05-13T03:15:22.240Z,100.00
2023-05-13T03:17:48.805Z,100.00
2023-05-13T03:20:15.232Z,100.00
2023-05-13T03:22:42.812Z,100.00
2023-05-13T03:25:09.343Z,100.00
2023-05-13T03:27:35.831Z,100.00
2023-05-13T03:30:02.251Z,100.00
2023-05-13T03:32:30.790Z,100.00
2023-05-13T03:34:58.349Z,100.00
2023-05-13T03:37:24.837Z,100.00
2023-05-13T03:39:51.652Z,100.00
2023-05-13T03:42:18.185Z,100.00
2023-05-13T03:44:44.559Z,100.00
2023-05-13T03:47:11.029Z,100.00
2023-05-13T03:49:37.725Z,100.00
2023-05-13T03:52:04.375Z,100.00
2023-05-13T03:54:30.845Z,100.00
2023-05-13T03:56:57.821Z,100.00
2023-05-13T03:59:24.212Z,100.00
2023-05-13T04:01:51.066Z,100.00
2023-05-13T04:04:17.476Z,100.00
2023-05-13T04:06:43.860Z,100.00
2023-05-13T04:09:10.314Z,100.00
2023-05-13T04:11:36.889Z,100.00
2023-05-13T04:14:03.892Z,100.00
2023-05-13T04:16:30.395Z,100.00
2023-05-13T04:18:56.849Z,100.00
2023-05-13T04:21:23.365Z,100.00
2023-05-13T04:23:49.695Z,100.00
2023-05-13T04:26:16.230Z,100.00
2023-05-13T04:28:42.648Z,100.00
2023-05-13T04:31:09.030Z,100.00
2023-05-13T04:33:35.580Z,100.00
2023-05-13T04:36:01.917Z,100.00
2023-05-13T04:38:28.297Z,100.00
2023-05-13T04:40:55.876Z,100.00
2023-05-13T04:43:22.477Z,100.00
2023-05-13T04:45:49.292Z,100.00
2023-05-13T04:48:16.158Z,100.00
2023-05-13T04:50:46.914Z,100.00
2023-05-13T04:53:14.296Z,100.00
2023-05-13T04:55:40.879Z,100.00
2023-05-13T04:58:07.290Z,100.00
2023-05-13T05:00:33.710Z,100.00
2023-05-13T05:03:00.283Z,100.00
2023-05-13T05:05:26.742Z,100.00
2023-05-13T05:07:53.125Z,100.00
2023-05-13T05:10:19.965Z,100.00
2023-05-13T05:12:46.608Z,100.00
2023-05-13T05:15:15.735Z,100.00
2023-05-13T05:17:43.683Z,100.00
2023-05-13T05:20:11.009Z,100.00
2023-05-13T05:22:38.139Z,100.00
2023-05-13T05:25:05.138Z,100.00
2023-05-13T05:27:31.558Z,100.00
2023-05-13T05:29:58.241Z,100.00
2023-05-13T05:32:25.070Z,100.00
2023-05-13T05:34:52.601Z,100.00
2023-05-13T05:37:19.062Z,100.00
2023-05-13T05:39:45.545Z,100.00
2023-05-13T05:42:11.886Z,100.00
2023-05-13T05:44:38.258Z,100.00
2023-05-13T05:47:04.839Z,100.00
2023-05-13T05:49:31.315Z,100.00
2023-05-13T05:51:57.613Z,100.00
2023-05-13T05:54:24.153Z,100.00
2023-05-13T05:56:50.496Z,100.00
2023-05-13T05:59:16.817Z,100.00
2023-05-13T06:01:43.221Z,100.00
2023-05-13T06:04:09.690Z,100.00
2023-05-13T06:06:36.362Z,100.00
2023-05-13T06:09:02.913Z,100.00
2023-05-13T06:11:29.285Z,100.00
2023-05-13T06:13:57.392Z,100.00
2023-05-13T06:16:24.078Z,100.00
2023-05-13T06:18:50.662Z,100.00
2023-05-13T06:21:17.000Z,100.00
2023-05-13T06:23:43.372Z,100.00
2023-05-13T06:26:09.699Z,100.00
2023-05-13T06:28:36.039Z,100.00
2023-05-13T06:31:02.933Z,100.00
2023-05-13T06:33:29.321Z,100.00
2023-05-13T06:35:55.647Z,100.00
2023-05-13T06:38:22.121Z,100.00
2023-05-13T06:40:48.526Z,100.00
2023-05-13T06:43:16.195Z,100.00
2023-05-13T06:45:42.683Z,100.00
2023-05-13T06:48:09.149Z,100.00
2023-05-13T06:50:35.569Z,100.00
2023-05-13T06:53:02.164Z,100.00
2023-05-13T06:55:28.552Z,100.00
2023-05-13T06:57:55.001Z,100.00
2023-05-13T07:00:21.896Z,100.00
2023-05-13T07:02:48.469Z,100.00
2023-05-13T07:05:14.830Z,100.00
2023-05-13T07:07:42.362Z,100.00
2023-05-13T07:10:09.209Z,100.00
2023-05-13T07:12:35.570Z,96.70
2023-05-13T07:15:02.098Z,96.59
2023-05-13T07:17:28.626Z,96.14
2023-05-13T07:19:55.219Z,96.71
2023-05-13T07:22:21.616Z,95.52
2023-05-13T07:24:48.041Z,94.28
2023-05-13T07:27:14.412Z,94.77
2023-05-13T07:29:41.052Z,93.91
2023-05-13T07:32:07.766Z,93.25
2023-05-13T07:34:34.167Z,94.28
2023-05-13T07:37:00.820Z,93.53
2023-05-13T07:39:27.836Z,93.85
2023-05-13T07:41:54.322Z,94.65
2023-05-13T07:44:21.966Z,95.21
2023-05-13T07:46:49.375Z,94.39
2023-05-13T07:49:15.826Z,94.14
2023-05-13T07:51:42.285Z,94.91
2023-05-13T07:54:09.639Z,93.74
2023-05-13T07:56:38.095Z,92.53
2023-05-13T07:59:04.909Z,92.04
2023-05-13T08:01:31.396Z,90.05
2023-05-13T08:03:57.898Z,89.61
2023-05-13T08:06:24.386Z,89.31
2023-05-13T08:08:50.865Z,89.36
2023-05-13T08:11:17.394Z,88.54
2023-05-13T08:13:43.752Z,87.12
2023-05-13T08:16:10.139Z,86.36
2023-05-13T08:18:36.779Z,86.15
2023-05-13T08:21:03.362Z,86.54
2023-05-13T08:23:43.478Z,83.17
2023-05-13T08:26:11.578Z,81.83
2023-05-13T08:28:38.025Z,80.62
2023-05-13T08:31:04.594Z,78.47
2023-05-13T08:33:31.693Z,77.36
2023-05-13T08:35:59.897Z,76.78
2023-05-13T08:38:26.467Z,73.88
2023-05-13T08:40:52.950Z,73.60
2023-05-13T08:43:19.749Z,72.49
2023-05-13T08:45:47.640Z,72.08
2023-05-13T08:48:19.823Z,71.60
2023-05-13T08:50:47.091Z,70.43
2023-05-13T08:53:13.503Z,70.05
2023-05-13T08:55:42.985Z,69.51
2023-05-13T08:58:09.452Z,67.88
2023-05-13T09:00:36.152Z,67.80
2023-05-13T09:03:03.113Z,66.99
2023-05-13T09:05:29.670Z,64.74
2023-05-13T09:07:56.454Z,64.76
2023-05-13T09:10:22.905Z,64.44
2023-05-13T09:12:55.454Z,64.96
2023-05-13T09:15:26.858Z,65.23
2023-05-13T09:18:00.114Z,62.69
2023-05-13T09:20:26.996Z,61.79
2023-05-13T09:22:54.410Z,63.39
2023-05-13T09:25:24.412Z,63.22
2023-05-13T09:27:58.456Z,63.13
2023-05-13T09:30:30.166Z,61.88
2023-05-13T09:33:09.083Z,61.50
2023-05-13T09:35:37.840Z,61.86
2023-05-13T09:38:14.662Z,61.12
2023-05-13T09:40:41.819Z,60.50
2023-05-13T09:43:08.447Z,61.43
2023-05-13T09:45:36.157Z,61.41
2023-05-13T09:48:03.116Z,60.80
2023-05-13T09:50:31.377Z,61.36
2023-05-13T09:52:57.828Z,60.82
2023-05-13T09:55:24.217Z,59.83
2023-05-13T09:57:52.995Z,60.71
2023-05-13T10:00:29.222Z,60.97
2023-05-13T10:02:58.793Z,61.89
2023-05-13T10:05:25.360Z,61.95
2023-05-13T10:07:52.266Z,62.53
2023-05-13T10:10:19.875Z,61.28
2023-05-13T10:12:47.142Z,60.97
2023-05-13T10:15:14.049Z,61.22
2023-05-13T10:17:41.650Z,62.12
2023-05-13T10:20:08.639Z,62.59
2023-05-13T10:22:35.718Z,62.13
2023-05-13T10:25:03.911Z,63.42
2023-05-13T10:27:32.514Z,64.06
2023-05-13T10:30:03.133Z,64.02
2023-05-13T10:32:31.475Z,63.01
2023-05-13T10:35:12.152Z,63.23
2023-05-13T10:37:56.369Z,63.24
2023-05-13T10:40:41.843Z,64.34
2023-05-13T10:43:22.194Z,64.74
2023-05-13T10:45:56.546Z,65.69
2023-05-13T10:48:23.094Z,65.27
2023-05-13T10:50:55.646Z,64.76
2023-05-13T10:53:25.168Z,63.62
2023-05-13T10:56:00.761Z,63.48
2023-05-13T10:58:32.396Z,63.74
2023-05-13T11:01:19.386Z,63.52
2023-05-13T11:03:54.992Z,63.70
2023-05-13T11:06:41.137Z,64.07
2023-05-13T11:09:14.546Z,62.47
2023-05-13T11:11:41.368Z,61.11
2023-05-13T11:14:15.830Z,61.20
2023-05-13T11:17:06.682Z,63.46
2023-05-13T11:19:35.637Z,64.83
2023-05-13T11:22:12.142Z,65.38
2023-05-13T11:24:39.369Z,65.26
2023-05-13T11:27:16.300Z,65.90
2023-05-13T11:29:54.676Z,67.42
2023-05-13T11:32:56.773Z,68.40
2023-05-13T11:35:31.572Z,68.73
2023-05-13T11:38:00.547Z,68.89
2023-05-13T11:40:32.811Z,68.94
2023-05-13T11:42:59.955Z,69.46
2023-05-13T11:45:27.924Z,69.42
2023-05-13T11:47:56.490Z,70.24
2023-05-13T11:50:41.195Z,71.22
2023-05-13T11:53:07.726Z,71.78
2023-05-13T11:55:36.137Z,72.13
2023-05-13T11:58:03.800Z,73.00
2023-05-13T12:00:32.615Z,71.83
2023-05-13T12:03:00.571Z,69.10
2023-05-13T12:05:27.679Z,64.92
2023-05-13T12:07:58.416Z,63.09
2023-05-13T12:10:26.360Z,60.46
2023-05-13T12:12:53.179Z,59.37
2023-05-13T12:15:21.521Z,58.06
2023-05-13T12:17:49.312Z,54.63
2023-05-13T12:20:18.045Z,55.04
2023-05-13T12:22:44.398Z,54.44
2023-05-13T12:25:43.319Z,53.88
2023-05-13T12:28:11.866Z,54.30
2023-05-13T12:30:40.491Z,54.61
2023-05-13T12:33:16.636Z,53.43
2023-05-13T12:35:44.428Z,53.74
2023-05-13T12:38:16.348Z,55.12
2023-05-13T12:40:43.476Z,54.65
2023-05-13T12:43:11.150Z,52.10
2023-05-13T12:45:39.644Z,52.41
2023-05-13T12:48:08.100Z,52.97
2023-05-13T12:50:34.720Z,53.20
2023-05-13T12:53:01.116Z,52.85
2023-05-13T12:55:27.588Z,53.53
2023-05-13T12:58:00.602Z,52.84
2023-05-13T13:00:27.633Z,53.42
2023-05-13T13:02:54.309Z,53.87
2023-05-13T13:05:22.240Z,53.58
2023-05-13T13:07:48.959Z,53.10
2023-05-13T13:10:15.421Z,53.32
2023-05-13T13:12:42.594Z,52.04
2023-05-13T13:15:10.478Z,50.74
2023-05-13T13:17:36.931Z,49.09
2023-05-13T13:20:04.874Z,48.21
2023-05-13T13:22:31.604Z,45.68
2023-05-13T13:24:57.993Z,45.59
2023-05-13T13:27:24.498Z,45.76
2023-05-13T13:29:50.912Z,45.42
2023-05-13T13:32:17.382Z,46.93
2023-05-13T13:34:43.962Z,45.80
2023-05-13T13:37:10.258Z,45.08
2023-05-13T13:39:36.899Z,45.49
2023-05-13T13:42:06.624Z,44.97
2023-05-13T13:44:33.138Z,45.21
2023-05-13T13:46:59.997Z,44.40
2023-05-13T13:49:26.410Z,43.63
2023-05-13T13:51:53.013Z,43.45
2023-05-13T13:54:19.829Z,41.79
2023-05-13T13:56:47.266Z,42.13
2023-05-13T13:59:13.702Z,41.71
2023-05-13T14:01:41.245Z,42.19
2023-05-13T14:04:16.329Z,46.60
2023-05-13T14:06:44.603Z,49.01
2023-05-13T14:09:11.099Z,50.03
2023-05-13T14:11:37.595Z,51.72
2023-05-13T14:14:04.131Z,53.72
2023-05-13T14:16:30.721Z,54.61
2023-05-13T14:18:57.165Z,55.17
2023-05-13T14:21:23.668Z,56.22
2023-05-13T14:23:50.095Z,56.88
2023-05-13T14:26:16.498Z,57.24
2023-05-13T14:28:43.410Z,58.50
2023-05-13T14:31:10.041Z,58.38
2023-05-13T14:33:37.012Z,59.38
2023-05-13T14:36:03.794Z,59.95
2023-05-13T14:38:31.200Z,59.90
2023-05-13T14:40:58.219Z,60.07
2023-05-13T14:43:25.133Z,59.13
2023-05-13T14:45:51.794Z,59.61
2023-05-13T14:48:19.269Z,59.13
2023-05-13T14:50:46.526Z,58.75
2023-05-13T14:53:13.127Z,58.87
2023-05-13T14:55:39.538Z,57.97
2023-05-13T14:58:08.935Z,58.05
2023-05-13T15:00:39.786Z,58.04
2023-05-13T15:03:06.396Z,57.77
2023-05-13T15:05:32.885Z,57.90
2023-05-13T15:07:59.944Z,58.09
2023-05-13T15:10:26.355Z,57.56
2023-05-13T15:12:52.680Z,56.08
2023-05-13T15:15:19.183Z,54.86
2023-05-13T15:17:45.668Z,53.46
2023-05-13T15:20:12.561Z,53.69
2023-05-13T15:22:38.994Z,52.55
2023-05-13T15:25:05.733Z,53.08
2023-05-13T15:27:32.370Z,52.64
2023-05-13T15:29:58.820Z,52.49
2023-05-13T15:32:25.217Z,52.84
2023-05-13T15:34:51.553Z,53.03
2023-05-13T15:37:17.926Z,52.43
2023-05-13T15:39:44.690Z,52.25
2023-05-13T15:42:11.131Z,51.74
2023-05-13T15:44:37.665Z,50.98
2023-05-13T15:47:06.023Z,49.69
2023-05-13T15:49:35.779Z,49.85
2023-05-13T15:52:02.960Z,50.46
2023-05-13T15:54:30.177Z,49.64
2023-05-13T15:56:58.861Z,49.77
2023-05-13T15:59:25.258Z,50.25
2023-05-13T16:01:51.668Z,49.93
2023-05-13T16:04:18.034Z,49.87
2023-05-13T16:06:44.577Z,50.37
2023-05-13T16:09:10.984Z,50.59
2023-05-13T16:11:37.293Z,50.10
2023-05-13T16:14:04.602Z,50.77
2023-05-13T16:16:31.095Z,51.46
2023-05-13T16:18:58.342Z,51.55
2023-05-13T16:21:24.822Z,51.26
2023-05-13T16:23:51.172Z,51.33
2023-05-13T16:26:17.592Z,52.01
2023-05-13T16:28:44.018Z,51.93
2023-05-13T16:31:10.428Z,52.10
2023-05-13T16:33:36.743Z,52.96
2023-05-13T16:36:03.689Z,53.00
2023-05-13T16:38:30.420Z,52.61
2023-05-13T16:40:57.157Z,52.98
2023-05-13T16:43:23.654Z,53.63
2023-05-13T16:45:50.002Z,53.87
2023-05-13T16:48:16.539Z,53.45
2023-05-13T16:50:43.236Z,54.07
2023-05-13T16:53:09.783Z,54.33
2023-05-13T16:55:36.175Z,54.50
2023-05-13T16:58:02.596Z,54.21
2023-05-13T17:00:29.040Z,54.09
2023-05-13T17:02:55.422Z,54.26
2023-05-13T17:05:22.005Z,54.35
2023-05-13T17:07:48.446Z,54.70
2023-05-13T17:10:15.020Z,54.56
2023-05-13T17:12:41.494Z,55.34
2023-05-13T17:15:08.256Z,55.66
2023-05-13T17:17:35.366Z,55.89
2023-05-13T17:20:01.775Z,55.79
2023-05-13T17:22:28.123Z,56.28
2023-05-13T17:24:54.569Z,56.50
2023-05-13T17:27:21.537Z,56.58
2023-05-13T17:29:47.930Z,56.70
2023-05-13T17:32:14.452Z,57.17
2023-05-13T17:34:40.769Z,56.80
2023-05-13T17:37:07.095Z,56.49
2023-05-13T17:39:33.579Z,56.48
2023-05-13T17:41:59.954Z,56.23
2023-05-13T17:44:26.326Z,56.49
2023-05-13T17:46:52.708Z,55.79
2023-05-13T17:49:19.128Z,55.60
2023-05-13T17:51:45.435Z,55.78
2023-05-13T17:54:11.879Z,55.53
2023-05-13T17:56:38.210Z,55.52
2023-05-13T17:59:04.562Z,55.37
2023-05-13T18:01:31.089Z,55.12
2023-05-13T18:03:57.617Z,55.35
2023-05-13T18:06:23.995Z,55.75
2023-05-13T18:08:51.418Z,55.68
2023-05-13T18:11:17.781Z,55.33
2023-05-13T18:13:44.136Z,55.62
2023-05-13T18:16:11.630Z,55.92
2023-05-13T18:18:38.092Z,55.83
2023-05-13T18:21:04.507Z,55.90
2023-05-13T18:23:32.723Z,56.13
2023-05-13T18:25:59.256Z,56.30
2023-05-13T18:28:25.626Z,56.08
2023-05-13T18:30:52.066Z,56.12
2023-05-13T18:33:19.857Z,56.25
2023-05-13T18:35:46.278Z,56.06
2023-05-13T18:38:12.759Z,56.34
2023-05-13T18:40:39.072Z,56.46
2023-05-13T18:43:05.379Z,56.84
2023-05-13T18:45:31.924Z,56.80
2023-05-13T18:47:58.400Z,56.90
2023-05-13T18:50:25.090Z,57.37
2023-05-13T18:52:51.617Z,57.95
2023-05-13T18:55:18.018Z,58.04
2023-05-13T18:57:44.348Z,58.75
2023-05-13T19:00:11.241Z,59.07
2023-05-13T19:02:37.814Z,59.46
2023-05-13T19:05:05.117Z,60.14
2023-05-13T19:07:31.723Z,60.70
2023-05-13T19:09:58.012Z,61.31
2023-05-13T19:12:24.418Z,61.88
2023-05-13T19:14:50.829Z,62.68
2023-05-13T19:17:18.612Z,62.80
2023-05-13T19:19:45.139Z,63.40
2023-05-13T19:22:11.520Z,63.79
2023-05-13T19:24:37.840Z,64.67
2023-05-13T19:27:04.503Z,65.20
2023-05-13T19:29:30.940Z,65.73
2023-05-13T19:31:57.312Z,66.10
2023-05-13T19:34:23.728Z,66.36
2023-05-13T19:36:50.277Z,67.18
2023-05-13T19:39:16.698Z,67.54
2023-05-13T19:41:43.133Z,67.94
2023-05-13T19:44:09.638Z,68.98
2023-05-13T19:46:36.119Z,69.36
2023-05-13T19:49:02.508Z,70.36
2023-05-13T19:51:28.874Z,71.32
2023-05-13T19:53:55.339Z,71.53
2023-05-13T19:56:21.744Z,72.28
2023-05-13T19:58:48.629Z,72.48
2023-05-13T20:01:14.964Z,73.44
2023-05-13T20:03:41.686Z,73.81
2023-05-13T20:06:08.237Z,73.58
2023-05-13T20:08:35.655Z,75.07
2023-05-13T20:11:02.138Z,75.88
2023-05-13T20:13:29.540Z,76.05
2023-05-13T20:15:55.912Z,76.55
2023-05-13T20:18:22.357Z,77.44
2023-05-13T20:20:48.805Z,78.38
2023-05-13T20:23:15.301Z,78.45
2023-05-13T20:25:41.639Z,79.12
2023-05-13T20:28:08.071Z,79.67
2023-05-13T20:30:34.458Z,79.99
2023-05-13T20:33:00.977Z,80.79
2023-05-13T20:35:27.551Z,81.61
2023-05-13T20:37:54.380Z,81.63
2023-05-13T20:40:20.878Z,82.10
2023-05-13T20:42:47.911Z,82.74
2023-05-13T20:45:14.339Z,82.80
2023-05-13T20:47:40.681Z,83.51
2023-05-13T20:50:07.832Z,83.96
2023-05-13T20:52:34.382Z,84.62
2023-05-13T20:55:01.047Z,84.90
2023-05-13T20:57:27.599Z,85.38
2023-05-13T20:59:54.001Z,85.73
2023-05-13T21:02:20.364Z,86.12
2023-05-13T21:04:46.940Z,86.59
2023-05-13T21:07:13.344Z,87.21
2023-05-13T21:09:40.038Z,87.35
2023-05-13T21:12:06.995Z,87.67
2023-05-13T21:14:33.466Z,88.08
2023-05-13T21:17:03.046Z,88.27
2023-05-13T21:19:30.530Z,88.82
2023-05-13T21:21:57.696Z,88.79
2023-05-13T21:24:24.122Z,89.26
2023-05-13T21:26:50.861Z,89.56
2023-05-13T21:29:18.862Z,89.18
2023-05-13T21:31:45.957Z,89.23
2023-05-13T21:34:12.854Z,89.49
2023-05-13T21:36:39.368Z,89.87
2023-05-13T21:39:07.525Z,89.68
2023-05-13T21:41:34.005Z,90.14
2023-05-13T21:44:00.469Z,90.38
2023-05-13T21:46:26.806Z,91.25
2023-05-13T21:48:53.220Z,92.42
2023-05-13T21:51:19.664Z,92.30
2023-05-13T21:53:45.994Z,92.35
2023-05-13T21:56:12.344Z,92.35
2023-05-13T21:58:38.748Z,92.12
2023-05-13T22:01:05.101Z,92.41
2023-05-13T22:03:32.490Z,92.19
2023-05-13T22:05:58.843Z,92.37
2023-05-13T22:08:25.258Z,92.90
2023-05-13T22:10:51.591Z,92.93
2023-05-13T22:13:17.977Z,93.11
2023-05-13T22:15:44.355Z,93.45
2023-05-13T22:18:10.862Z,93.58
2023-05-13T22:20:37.243Z,94.29
2023-05-13T22:23:03.599Z,94.04
2023-05-13T22:25:29.995Z,94.09
2023-05-13T22:27:56.317Z,94.62
2023-05-13T22:30:23.004Z,94.75
2023-05-13T22:32:50.820Z,94.90
2023-05-13T22:35:17.442Z,94.56
2023-05-13T22:37:43.876Z,95.49
2023-05-13T22:40:11.184Z,95.44
2023-05-13T22:42:37.608Z,95.33
2023-05-13T22:45:04.738Z,95.23
2023-05-13T22:47:31.263Z,95.20
2023-05-13T22:49:57.599Z,95.22
2023-05-13T22:52:24.014Z,95.42
2023-05-13T22:54:50.404Z,95.67
2023-05-13T22:57:17.069Z,95.72
2023-05-13T22:59:43.505Z,95.55
2023-05-13T23:02:09.975Z,95.79
2023-05-13T23:04:36.498Z,95.88
2023-05-13T23:07:03.022Z,96.14
2023-05-13T23:09:29.433Z,96.24
2023-05-13T23:11:55.909Z,95.87
2023-05-13T23:14:22.330Z,95.99
2023-05-13T23:16:48.661Z,95.86
2023-05-13T23:19:15.586Z,95.48
2023-05-13T23:21:42.023Z,95.38
2023-05-13T23:24:08.457Z,95.37
2023-05-13T23:26:34.815Z,94.95
2023-05-13T23:29:01.127Z,95.04
2023-05-13T23:31:27.632Z,94.86
2023-05-13T23:33:54.038Z,94.68
2023-05-13T23:36:20.645Z,94.88
2023-05-13T23:38:47.228Z,95.38
2023-05-13T23:41:13.585Z,95.46
2023-05-13T23:43:39.963Z,95.60
2023-05-13T23:46:06.412Z,95.87
2023-05-13T23:48:32.751Z,95.79
2023-05-13T23:50:59.198Z,95.81
2023-05-13T23:53:25.604Z,95.46
2023-05-13T23:55:52.085Z,95.46
2023-05-13T23:58:18.553Z,95.49
